Decoded Metar for LFLX (CHATEAUROUX in FRANCE) (IATA:CHR) | Meteo·Mobile Aviation Weather
aviador You're here:

LFLX Decoded Metar

CHATEAUROUX in FRANCE
Report Time2018-10-18 15:00:00
UTC Time2018-10-18 15:30:43
Flight Rules vfr VFR
Wind040° at 11 kt
W.Decomp.*RWY 03: 10.8 kt HW 1.9 kt RCW
W.Rank040° ranks 11
Current wind is above 040° avg. (6.2)
Visibility9999 m
Phenomena:N/A
Clouds:N/A
Expected CloudBase > 5,600 ft AGL from Temp-Dew spread
CeilingNone
Temp23°C (ISA +9)
Dew Point09°C (41% RH)
AAT18.8°C
QNH1017 hPa
Density Alt1,588 ft
Elevation515 ft
Report Wrong Elevation
Raw Report
METAR LFLX 181500Z AUTO 04011KT CAVOK 23/09 Q1017 NOSIG=

Extra information for LFLX:More info

Metar Taf Metar & Taf Last 4 Metars F.Rules Stats Wind Profile Meteogram Temp Stats Airport Information Weather charts Add Link Nearby VenuesMetar ALERT Operation Metar Decoded Social comments